Time;durP1;ratioP1;P1;durP2;ratioP2;P2;SDS_P1;SDS_P2;PMS_P1;PMS_P2;Temp;Humidity;BMP_temperature;BMP_pressure;BME280_temperature;BME280_humidity;BME280_pressure;Samples;Min_cycle;Max_cycle;Signal;HPM_P1;HPM_P2
2023/12/10 00:00:43;;;;;;;1.70;1.60;;;16.80;66.20;;;;;;5086406;28;43412;-73
2023/12/10 00:03:11;;;;;;;1.63;1.53;;;16.70;66.20;;;;;;5087005;28;43312;-73
2023/12/10 00:05:39;;;;;;;1.70;1.60;;;16.70;66.30;;;;;;5085766;28;43493;-73
2023/12/10 00:08:09;;;;;;;1.80;1.70;;;16.70;66.40;;;;;;5078158;28;44174;-73
2023/12/10 00:10:37;;;;;;;1.80;1.70;;;16.60;66.50;;;;;;5075497;28;45018;-74
2023/12/10 00:13:05;;;;;;;1.90;1.80;;;16.60;66.60;;;;;;5087378;28;43478;-74
2023/12/10 00:15:33;;;;;;;1.43;1.40;;;16.60;66.40;;;;;;5081055;28;43532;-74
2023/12/10 00:18:01;;;;;;;1.70;1.60;;;16.60;66.40;;;;;;5087720;28;43596;-73
2023/12/10 00:20:30;;;;;;;1.60;1.50;;;16.60;66.50;;;;;;5086876;28;43857;-72
2023/12/10 00:22:58;;;;;;;1.97;1.87;;;16.60;66.50;;;;;;5087133;28;43352;-72
2023/12/10 00:25:31;;;;;;;3.13;2.13;;;16.60;66.60;;;;;;5076657;28;43475;-74
2023/12/10 00:27:59;;;;;;;1.87;1.77;;;16.60;66.70;;;;;;5085884;28;43620;-73
2023/12/10 00:30:27;;;;;;;2.43;1.83;;;16.60;66.70;;;;;;5087306;28;43407;-73
2023/12/10 00:32:55;;;;;;;1.90;1.80;;;16.60;66.50;;;;;;5086625;28;43312;-73
2023/12/10 00:35:23;;;;;;;2.03;1.93;;;16.70;66.20;;;;;;5067500;28;43432;-78
2023/12/10 00:37:51;;;;;;;3.30;2.40;;;16.70;66.00;;;;;;5069031;28;43927;-77
2023/12/10 00:40:21;;;;;;;1.67;1.57;;;16.70;66.00;;;;;;5062125;28;44695;-78
2023/12/10 00:42:51;;;;;;;2.03;1.83;;;16.70;66.10;;;;;;5069464;28;44013;-77
2023/12/10 00:45:19;;;;;;;1.80;1.70;;;16.70;66.30;;;;;;5070128;28;43381;-75
2023/12/10 00:47:47;;;;;;;2.53;2.10;;;16.70;66.30;;;;;;5068356;28;43595;-75
2023/12/10 00:50:16;;;;;;;2.13;1.83;;;16.70;66.30;;;;;;5068464;28;43403;-75
2023/12/10 00:52:44;;;;;;;2.03;1.80;;;16.60;66.20;;;;;;5068799;28;43357;-77
2023/12/10 00:55:12;;;;;;;2.00;1.70;;;16.70;66.40;;;;;;5069191;28;43452;-75
2023/12/10 00:57:40;;;;;;;2.10;2.00;;;16.60;66.40;;;;;;5063986;28;45934;-76
2023/12/10 01:00:11;;;;;;;2.47;2.00;;;16.60;66.50;;;;;;5067720;28;43467;-75
2023/12/10 01:02:41;;;;;;;2.00;1.90;;;16.60;66.60;;;;;;5068657;28;43374;-75
2023/12/10 01:05:09;;;;;;;2.33;2.13;;;16.60;66.60;;;;;;5069134;28;43362;-74
2023/12/10 01:07:37;;;;;;;2.67;2.43;;;16.70;66.30;;;;;;5063138;28;43608;-74
2023/12/10 01:10:06;;;;;;;2.27;1.97;;;16.80;66.10;;;;;;5064267;28;43410;-73
2023/12/10 01:12:36;;;;;;;1.67;1.63;;;16.70;66.00;;;;;;5068583;28;43897;-75
2023/12/10 01:15:05;;;;;;;1.73;1.63;;;16.70;66.10;;;;;;5066865;28;43601;-75
2023/12/10 01:17:35;;;;;;;2.00;1.60;;;16.70;66.20;;;;;;5063440;28;45485;-74
2023/12/10 01:20:04;;;;;;;1.67;1.57;;;16.60;66.20;;;;;;5066256;28;44432;-75
2023/12/10 01:22:32;;;;;;;1.70;1.60;;;16.70;66.20;;;;;;5057186;28;43488;-75
2023/12/10 01:25:01;;;;;;;2.33;2.13;;;16.70;66.20;;;;;;5062259;28;43630;-73
2023/12/10 01:27:29;;;;;;;1.93;1.83;;;16.70;66.40;;;;;;5068237;28;44400;-75
2023/12/10 01:29:57;;;;;;;1.73;1.63;;;16.60;66.30;;;;;;5068077;28;43400;-74
2023/12/10 01:32:26;;;;;;;1.87;1.77;;;16.60;66.40;;;;;;5068252;28;43429;-75
2023/12/10 01:34:56;;;;;;;2.07;1.83;;;16.60;66.50;;;;;;5062897;28;44083;-74
2023/12/10 01:37:24;;;;;;;2.07;1.87;;;16.60;66.50;;;;;;5067860;28;44048;-74
2023/12/10 01:39:52;;;;;;;1.80;1.70;;;16.60;66.20;;;;;;5061713;28;44649;-74
2023/12/10 01:42:20;;;;;;;1.97;1.80;;;16.70;66.00;;;;;;5068525;28;43506;-74
2023/12/10 01:44:48;;;;;;;1.73;1.63;;;16.70;66.00;;;;;;5068532;28;43451;-79
2023/12/10 01:47:17;;;;;;;2.07;1.97;;;16.70;66.10;;;;;;5059980;28;45825;-78
2023/12/10 01:49:46;;;;;;;2.20;2.03;;;16.70;66.20;;;;;;5055703;28;45234;-79
2023/12/10 01:52:15;;;;;;;1.70;1.70;;;16.70;66.30;;;;;;5067894;28;43422;-75
2023/12/10 01:54:43;;;;;;;2.33;1.63;;;16.70;66.20;;;;;;5068732;28;43435;-77
2023/12/10 01:57:12;;;;;;;1.70;1.60;;;16.70;66.20;;;;;;5053479;28;46032;-79
2023/12/10 01:59:40;;;;;;;1.83;1.73;;;16.70;66.40;;;;;;5063559;28;43404;-78
2023/12/10 02:02:08;;;;;;;2.00;1.87;;;16.60;66.30;;;;;;5064915;28;44119;-77
2023/12/10 02:04:36;;;;;;;2.77;2.00;;;16.60;66.40;;;;;;5055383;28;43927;-76
2023/12/10 02:07:05;;;;;;;2.10;2.00;;;16.60;66.50;;;;;;5067702;28;43619;-77
2023/12/10 02:09:34;;;;;;;2.73;2.07;;;16.60;66.50;;;;;;5067435;28;43601;-79
2023/12/10 02:12:04;;;;;;;1.93;1.77;;;16.60;66.30;;;;;;5067781;28;43400;-78
2023/12/10 02:14:32;;;;;;;1.90;1.80;;;16.70;66.00;;;;;;5068135;28;43400;-77
2023/12/10 02:17:00;;;;;;;1.87;1.77;;;16.70;65.90;;;;;;5068112;28;43612;-76
2023/12/10 02:19:28;;;;;;;1.57;1.53;;;16.80;66.10;;;;;;5069345;28;43385;-78
2023/12/10 02:21:56;;;;;;;2.00;1.90;;;16.70;66.10;;;;;;5058834;28;43455;-78
2023/12/10 02:24:27;;;;;;;3.47;1.97;;;16.70;66.10;;;;;;5068090;28;43419;-77
2023/12/10 02:26:57;;;;;;;2.27;2.07;;;16.70;66.10;;;;;;5067348;28;44988;-78
2023/12/10 02:29:25;;;;;;;1.80;1.70;;;16.60;66.10;;;;;;5058793;28;44764;-77
2023/12/10 02:31:54;;;;;;;1.83;1.70;;;16.70;66.20;;;;;;5064377;28;43475;-78
2023/12/10 02:34:22;;;;;;;1.80;1.70;;;16.70;66.30;;;;;;5070840;28;43831;-78
2023/12/10 02:36:50;;;;;;;2.07;1.87;;;16.60;66.30;;;;;;5066671;28;44118;-77
2023/12/10 02:39:19;;;;;;;1.90;1.80;;;16.60;66.30;;;;;;5069958;28;43807;-77
2023/12/10 02:41:47;;;;;;;2.20;1.90;;;16.60;66.40;;;;;;5070077;28;43942;-77
2023/12/10 02:44:18;;;;;;;2.30;1.83;;;16.60;66.30;;;;;;5070215;28;43872;-78
2023/12/10 02:46:48;;;;;;;1.93;1.73;;;16.70;66.00;;;;;;5069852;28;44000;-78
2023/12/10 02:49:16;;;;;;;2.00;1.90;;;16.70;65.80;;;;;;5069496;28;43509;-78
2023/12/10 02:51:44;;;;;;;1.73;1.63;;;16.70;65.80;;;;;;5069880;28;43379;-78
2023/12/10 02:54:12;;;;;;;2.37;2.17;;;16.70;65.90;;;;;;5069915;28;43427;-72
2023/12/10 02:56:41;;;;;;;3.37;2.07;;;16.70;66.10;;;;;;5087813;28;43856;-72
2023/12/10 02:59:09;;;;;;;2.00;1.80;;;16.70;66.10;;;;;;5087600;28;43410;-74
2023/12/10 03:01:40;;;;;;;1.90;1.80;;;16.70;66.00;;;;;;5087395;28;43444;-74
2023/12/10 03:04:09;;;;;;;1.63;1.53;;;16.70;66.10;;;;;;5088207;28;43459;-79
2023/12/10 03:06:37;;;;;;;1.90;1.80;;;16.70;66.20;;;;;;5069387;28;43707;-75
2023/12/10 03:09:05;;;;;;;1.97;1.87;;;16.60;66.20;;;;;;5069503;28;43862;-74
2023/12/10 03:11:33;;;;;;;2.73;1.90;;;16.60;66.30;;;;;;5061896;28;43481;-75
2023/12/10 03:14:04;;;;;;;2.13;1.93;;;16.60;66.40;;;;;;5060269;28;43443;-75
2023/12/10 03:16:32;;;;;;;2.43;2.13;;;16.60;66.30;;;;;;5069015;28;43825;-75
2023/12/10 03:19:01;;;;;;;3.17;1.90;;;16.60;66.00;;;;;;5068853;28;43392;-74
2023/12/10 03:21:30;;;;;;;1.77;1.67;;;16.80;65.80;;;;;;5069200;28;43411;-76
2023/12/10 03:23:58;;;;;;;2.00;1.90;;;16.80;65.70;;;;;;5069593;28;43385;-73
2023/12/10 03:26:26;;;;;;;2.03;1.83;;;16.80;65.80;;;;;;5069156;28;43608;-74
2023/12/10 03:28:54;;;;;;;3.07;1.90;;;16.70;65.90;;;;;;5069004;28;43491;-74
2023/12/10 03:31:22;;;;;;;2.10;1.90;;;16.70;66.00;;;;;;5065616;28;43441;-75
2023/12/10 03:33:51;;;;;;;2.17;2.03;;;16.70;65.90;;;;;;5021545;28;1191055;-75
2023/12/10 03:36:21;;;;;;;1.83;1.73;;;16.60;66.00;;;;;;5069869;28;43796;-79
2023/12/10 03:38:49;;;;;;;1.77;1.70;;;16.60;66.00;;;;;;5066705;28;44700;-75
2023/12/10 03:41:17;;;;;;;2.20;2.00;;;16.60;66.10;;;;;;5069572;28;44062;-75
2023/12/10 03:43:46;;;;;;;2.27;1.80;;;16.60;66.20;;;;;;5061681;28;43498;-74
2023/12/10 03:46:14;;;;;;;2.00;1.90;;;16.60;66.30;;;;;;5068802;28;43592;-75
2023/12/10 03:48:42;;;;;;;3.13;2.10;;;16.60;66.40;;;;;;5068729;28;43903;-74
2023/12/10 03:51:10;;;;;;;1.60;1.50;;;16.60;66.20;;;;;;5064447;28;43968;-73
2023/12/10 03:53:40;;;;;;;2.27;2.07;;;16.60;66.20;;;;;;5070234;28;43368;-76
2023/12/10 03:56:09;;;;;;;2.10;1.70;;;16.60;66.40;;;;;;5069909;28;43771;-72
2023/12/10 03:58:37;;;;;;;1.87;1.77;;;16.50;66.30;;;;;;5051979;28;43511;-74
2023/12/10 04:01:06;;;;;;;2.53;2.33;;;16.50;66.30;;;;;;5068664;28;43936;-75
2023/12/10 04:03:34;;;;;;;2.53;2.20;;;16.50;66.30;;;;;;5063583;28;43467;-76
2023/12/10 04:06:02;;;;;;;2.57;1.77;;;16.60;66.40;;;;;;5056212;28;46149;-74
2023/12/10 04:08:31;;;;;;;2.53;2.13;;;16.70;66.10;;;;;;5063169;28;43344;-76
2023/12/10 04:11:00;;;;;;;2.07;1.97;;;16.70;65.70;;;;;;5069231;28;43535;-74
2023/12/10 04:13:28;;;;;;;2.43;1.77;;;16.70;65.60;;;;;;5065103;28;43411;-76
2023/12/10 04:15:57;;;;;;;1.60;1.50;;;16.80;65.80;;;;;;5069905;28;43970;-78
2023/12/10 04:18:27;;;;;;;2.00;1.80;;;16.70;65.80;;;;;;5069198;28;43530;-78
2023/12/10 04:20:55;;;;;;;2.43;2.23;;;16.70;65.90;;;;;;5069125;28;43304;-79
2023/12/10 04:23:23;;;;;;;2.33;2.13;;;16.70;65.80;;;;;;5061046;28;43611;-78
2023/12/10 04:25:51;;;;;;;1.83;1.73;;;16.70;65.80;;;;;;5056443;28;45720;-77
2023/12/10 04:28:23;;;;;;;1.97;1.87;;;16.70;66.00;;;;;;5059165;28;44687;-78
2023/12/10 04:30:51;;;;;;;2.00;1.90;;;16.70;66.10;;;;;;5056501;28;43397;-77
2023/12/10 04:33:20;;;;;;;2.73;2.17;;;16.70;66.20;;;;;;5062267;28;43424;-78
2023/12/10 04:35:48;;;;;;;3.70;2.47;;;16.70;66.30;;;;;;5068632;28;43610;-79
2023/12/10 04:38:16;;;;;;;4.20;2.50;;;16.60;66.30;;;;;;5058757;28;44818;-77
2023/12/10 04:40:44;;;;;;;4.87;2.77;;;16.70;66.20;;;;;;5068934;28;43340;-79
2023/12/10 04:43:12;;;;;;;3.43;2.37;;;16.70;65.80;;;;;;5065709;28;43962;-77
2023/12/10 04:45:42;;;;;;;2.80;2.50;;;16.80;65.80;;;;;;5067920;28;43694;-77
2023/12/10 04:48:12;;;;;;;2.60;2.40;;;16.70;65.80;;;;;;5066679;28;43493;-76
2023/12/10 04:50:41;;;;;;;3.77;2.70;;;16.70;65.90;;;;;;5058734;28;43859;-78
2023/12/10 04:53:09;;;;;;;4.40;2.70;;;16.70;65.90;;;;;;5067760;28;43536;-77
2023/12/10 04:55:38;;;;;;;3.43;2.43;;;16.70;65.90;;;;;;5069047;28;43944;-77
2023/12/10 04:58:06;;;;;;;3.13;2.67;;;16.70;66.60;;;;;;5068873;28;43490;-78
2023/12/10 05:00:34;;;;;;;3.00;2.60;;;16.70;66.00;;;;;;5068904;28;43995;-77
2023/12/10 05:03:04;;;;;;;2.53;2.27;;;16.70;66.10;;;;;;5063772;28;43526;-78
2023/12/10 05:05:32;;;;;;;2.83;2.60;;;16.70;66.10;;;;;;5068657;28;43903;-78
2023/12/10 05:08:03;;;;;;;5.37;3.00;;;16.70;66.20;;;;;;5068486;28;43383;-77
2023/12/10 05:10:31;;;;;;;3.10;2.47;;;16.70;66.20;;;;;;5068673;28;43454;-77
2023/12/10 05:13:00;;;;;;;4.17;2.70;;;16.70;66.10;;;;;;5066203;28;43472;-78
2023/12/10 05:15:28;;;;;;;3.77;2.53;;;16.70;66.10;;;;;;5069096;28;43694;-73
2023/12/10 05:17:56;;;;;;;3.67;2.30;;;16.60;66.10;;;;;;5065258;28;43486;-76
2023/12/10 05:20:26;;;;;;;3.10;2.40;;;16.70;66.20;;;;;;5068249;28;43570;-75
2023/12/10 05:22:54;;;;;;;2.80;2.53;;;16.60;66.20;;;;;;5068802;28;43483;-74
2023/12/10 05:25:22;;;;;;;3.60;2.67;;;16.60;66.30;;;;;;5061337;28;45415;-74
2023/12/10 05:27:50;;;;;;;3.27;2.60;;;16.60;66.10;;;;;;5068043;28;44090;-74
2023/12/10 05:30:18;;;;;;;4.13;2.77;;;16.70;66.10;;;;;;5068285;28;43294;-73
2023/12/10 05:32:46;;;;;;;5.70;3.00;;;16.80;65.80;;;;;;5068580;28;45122;-73
2023/12/10 05:35:15;;;;;;;3.87;3.00;;;16.90;65.40;;;;;;5067825;28;43721;-75
2023/12/10 05:37:44;;;;;;;4.70;2.90;;;16.90;65.10;;;;;;5068281;28;43419;-74
2023/12/10 05:40:13;;;;;;;2.87;2.67;;;16.90;65.40;;;;;;5068125;28;43463;-74
2023/12/10 05:42:41;;;;;;;3.73;2.80;;;16.90;65.50;;;;;;5068033;28;43431;-73
2023/12/10 05:45:09;;;;;;;5.03;2.90;;;16.80;65.40;;;;;;5063751;28;45746;-74
2023/12/10 05:47:38;;;;;;;3.70;2.70;;;16.80;65.30;;;;;;5067950;28;43515;-76
2023/12/10 05:50:07;;;;;;;2.50;2.30;;;16.80;65.60;;;;;;5067758;28;44022;-76
2023/12/10 05:52:35;;;;;;;2.47;2.03;;;16.80;65.70;;;;;;5068225;28;43360;-73
2023/12/10 05:55:05;;;;;;;2.90;2.30;;;16.80;65.90;;;;;;5067995;28;43879;-73
2023/12/10 05:57:33;;;;;;;3.77;2.57;;;16.80;66.00;;;;;;5065610;28;44351;-77
2023/12/10 06:00:03;;;;;;;3.17;2.50;;;16.70;65.90;;;;;;5067752;28;43408;-73
2023/12/10 06:02:32;;;;;;;3.23;2.60;;;16.70;65.70;;;;;;5062930;28;43423;-74
2023/12/10 06:05:00;;;;;;;2.43;2.23;;;16.70;65.90;;;;;;5067460;28;43729;-76
2023/12/10 06:07:28;;;;;;;2.80;2.60;;;16.70;66.00;;;;;;5067758;28;43471;-74
2023/12/10 06:09:57;;;;;;;2.97;2.13;;;16.70;66.10;;;;;;5067667;28;43510;-74
2023/12/10 06:12:26;;;;;;;2.70;2.43;;;16.70;66.80;;;;;;5068165;28;43379;-74
2023/12/10 06:14:55;;;;;;;3.37;2.50;;;16.70;66.20;;;;;;5066754;28;44329;-76
2023/12/10 06:17:25;;;;;;;2.80;2.50;;;16.60;66.00;;;;;;5067418;28;43902;-74
2023/12/10 06:19:53;;;;;;;2.83;2.50;;;16.70;65.80;;;;;;5067303;28;43393;-73
2023/12/10 06:22:21;;;;;;;2.87;2.60;;;16.80;65.60;;;;;;5067694;28;43410;-74
2023/12/10 06:24:50;;;;;;;2.60;2.40;;;16.80;65.50;;;;;;5067734;28;43613;-77
2023/12/10 06:27:18;;;;;;;2.43;2.23;;;16.80;65.60;;;;;;5067714;28;43423;-77
2023/12/10 06:29:47;;;;;;;4.00;2.50;;;16.80;65.70;;;;;;5067429;28;43458;-78
2023/12/10 06:32:15;;;;;;;3.83;2.33;;;16.70;65.70;;;;;;5068106;28;43479;-79
2023/12/10 06:34:44;;;;;;;2.73;2.40;;;16.70;65.60;;;;;;5058755;28;45967;-75
2023/12/10 06:37:12;;;;;;;2.60;2.40;;;16.70;65.60;;;;;;5067589;28;43440;-74
2023/12/10 06:39:40;;;;;;;2.63;2.17;;;16.70;65.70;;;;;;5066776;28;43419;-74
2023/12/10 06:42:09;;;;;;;3.00;2.70;;;16.80;65.90;;;;;;5067491;28;43474;-74
2023/12/10 06:44:37;;;;;;;2.23;2.13;;;16.70;65.80;;;;;;5062841;28;45310;-75
2023/12/10 06:47:06;;;;;;;2.83;2.57;;;16.70;66.00;;;;;;5049614;28;43712;-75
2023/12/10 06:49:34;;;;;;;5.73;2.47;;;16.70;65.90;;;;;;5051853;28;43352;-76
2023/12/10 06:52:03;;;;;;;2.90;2.60;;;16.70;65.90;;;;;;5063502;28;44442;-74
2023/12/10 06:54:31;;;;;;;2.50;2.30;;;16.80;65.60;;;;;;5067106;28;43944;-74
2023/12/10 06:57:00;;;;;;;2.87;2.53;;;16.80;65.40;;;;;;5066408;28;43393;-75
2023/12/10 06:59:28;;;;;;;3.27;2.57;;;16.80;65.40;;;;;;5067533;28;43414;-74
2023/12/10 07:01:56;;;;;;;2.40;2.20;;;16.80;65.60;;;;;;5051777;28;43439;-73
2023/12/10 07:04:26;;;;;;;2.40;2.20;;;16.80;65.70;;;;;;5066532;28;43875;-75
2023/12/10 07:06:54;;;;;;;3.47;2.40;;;16.80;65.70;;;;;;5062125;28;43420;-73
2023/12/10 07:09:23;;;;;;;4.27;2.50;;;16.80;65.60;;;;;;5067096;28;44072;-75
2023/12/10 07:11:51;;;;;;;2.63;2.43;;;16.70;65.70;;;;;;5061059;28;43531;-75
2023/12/10 07:14:19;;;;;;;2.10;2.00;;;16.80;65.80;;;;;;5058516;28;44081;-73
2023/12/10 07:16:47;;;;;;;2.20;2.10;;;16.80;65.90;;;;;;5069991;28;43425;-75
2023/12/10 07:19:15;;;;;;;2.70;2.30;;;16.70;65.90;;;;;;5070438;28;43584;-74
2023/12/10 07:21:45;;;;;;;2.50;2.30;;;16.70;65.90;;;;;;5070122;28;43399;-76
2023/12/10 07:24:13;;;;;;;3.67;2.87;;;16.70;65.90;;;;;;5070365;28;43599;-72
2023/12/10 07:26:41;;;;;;;2.53;2.33;;;16.80;65.70;;;;;;5070333;28;43474;-74
2023/12/10 07:29:09;;;;;;;3.00;2.67;;;16.80;65.40;;;;;;5069370;28;43341;-75
2023/12/10 07:31:38;;;;;;;4.43;2.63;;;16.80;65.40;;;;;;5063479;28;43965;-74
2023/12/10 07:34:06;;;;;;;2.53;2.00;;;16.80;65.50;;;;;;5049542;28;45704;-74
2023/12/10 07:36:34;;;;;;;2.80;2.43;;;16.80;65.60;;;;;;5067147;28;43692;-78
2023/12/10 07:39:07;;;;;;;2.60;2.37;;;16.80;65.60;;;;;;5070346;28;43941;-78
2023/12/10 07:41:35;;;;;;;2.63;2.43;;;16.80;65.60;;;;;;5070480;28;43328;-78
2023/12/10 07:44:05;;;;;;;2.50;2.30;;;16.80;65.60;;;;;;5069590;28;43619;-78
2023/12/10 07:46:33;;;;;;;2.50;2.30;;;16.70;65.70;;;;;;5069866;28;43458;-78
2023/12/10 07:49:01;;;;;;;2.10;1.90;;;16.80;65.90;;;;;;5069951;28;43398;-79
2023/12/10 07:51:29;;;;;;;2.00;1.90;;;16.80;66.00;;;;;;5070291;28;43450;-78
2023/12/10 07:53:57;;;;;;;3.33;2.30;;;16.70;65.90;;;;;;5069639;28;43615;-78
2023/12/10 07:56:27;;;;;;;2.50;2.30;;;16.70;65.80;;;;;;5069143;28;43477;-78
2023/12/10 07:58:55;;;;;;;2.90;2.40;;;16.70;65.90;;;;;;5065038;28;43415;-78
2023/12/10 08:01:23;;;;;;;2.20;2.00;;;16.70;65.90;;;;;;5069842;28;43486;-78
2023/12/10 08:03:51;;;;;;;2.40;2.20;;;16.70;65.90;;;;;;5063024;28;45261;-78
2023/12/10 08:06:20;;;;;;;3.07;2.33;;;16.70;66.00;;;;;;5064809;28;43530;-76
2023/12/10 08:08:48;;;;;;;2.40;2.20;;;16.70;66.10;;;;;;5069355;28;43435;-80
2023/12/10 08:11:16;;;;;;;2.97;2.70;;;16.70;66.10;;;;;;5066985;28;43495;-79
2023/12/10 08:13:45;;;;;;;2.57;2.37;;;16.70;65.90;;;;;;5069379;28;43625;-79
2023/12/10 08:16:14;;;;;;;2.73;2.40;;;16.80;65.60;;;;;;5045445;28;44681;-79
2023/12/10 08:18:42;;;;;;;3.53;2.67;;;16.90;65.30;;;;;;5069283;28;43471;-79
2023/12/10 08:21:11;;;;;;;2.97;2.40;;;16.90;65.00;;;;;;5069423;28;43907;-78
2023/12/10 08:23:39;;;;;;;2.97;2.27;;;16.90;65.10;;;;;;5069505;28;43604;-80
2023/12/10 08:26:07;;;;;;;2.60;2.40;;;16.90;65.20;;;;;;5060959;28;44600;-78
2023/12/10 08:28:35;;;;;;;2.87;2.50;;;16.90;65.30;;;;;;5068800;28;43482;-77
2023/12/10 08:31:05;;;;;;;2.63;2.30;;;16.90;65.30;;;;;;5069644;28;44106;-77
2023/12/10 08:33:33;;;;;;;2.40;2.30;;;16.80;65.30;;;;;;5066051;28;43930;-79
2023/12/10 08:36:02;;;;;;;2.17;2.00;;;16.80;65.50;;;;;;5069333;28;43351;-78
2023/12/10 08:38:31;;;;;;;2.53;2.20;;;16.80;65.70;;;;;;5068999;28;43410;-79
2023/12/10 08:40:59;;;;;;;2.70;2.50;;;16.70;65.70;;;;;;5069363;28;43458;-78
2023/12/10 08:43:27;;;;;;;3.20;2.90;;;16.70;65.80;;;;;;5060617;28;45688;-78
2023/12/10 08:45:57;;;;;;;2.63;2.40;;;16.80;65.80;;;;;;5071661;28;44708;-72
2023/12/10 08:48:27;;;;;;;2.43;2.33;;;16.70;65.70;;;;;;5081880;28;43380;-72
2023/12/10 08:50:55;;;;;;;2.53;2.40;;;16.70;65.90;;;;;;5082154;28;43889;-73
2023/12/10 08:53:23;;;;;;;2.27;2.10;;;16.70;65.90;;;;;;5082106;28;43912;-74
2023/12/10 08:55:52;;;;;;;3.33;3.00;;;16.70;66.00;;;;;;5073829;28;44289;-73
2023/12/10 08:58:21;;;;;;;2.40;2.20;;;16.70;66.00;;;;;;5073879;28;43399;-72
2023/12/10 09:00:50;;;;;;;2.33;2.13;;;16.70;66.00;;;;;;5082127;28;43306;-73
2023/12/10 09:03:18;;;;;;;2.60;2.40;;;16.70;65.70;;;;;;5081665;28;44802;-73
2023/12/10 09:05:48;;;;;;;3.70;2.57;;;16.90;65.50;;;;;;5082219;28;43310;-71
2023/12/10 09:08:16;;;;;;;2.53;2.33;;;16.90;65.30;;;;;;5077143;28;43412;-74
2023/12/10 09:10:44;;;;;;;2.20;2.10;;;16.90;65.40;;;;;;5064922;28;43907;-73
2023/12/10 09:13:12;;;;;;;2.17;1.97;;;16.80;66.20;;;;;;5078376;28;45307;-73
2023/12/10 09:15:40;;;;;;;2.70;2.50;;;16.80;65.60;;;;;;5081578;28;43483;-73
2023/12/10 09:18:08;;;;;;;2.50;2.30;;;16.80;65.60;;;;;;5081941;28;43384;-73
2023/12/10 09:20:36;;;;;;;2.77;2.57;;;16.80;65.60;;;;;;5078441;28;43600;-73
2023/12/10 09:23:06;;;;;;;2.43;2.30;;;16.80;65.80;;;;;;5081060;28;44346;-73
2023/12/10 09:25:34;;;;;;;2.43;2.33;;;16.80;65.90;;;;;;5081387;28;43399;-72
2023/12/10 09:28:02;;;;;;;2.37;2.17;;;16.70;65.90;;;;;;5080560;28;43345;-74
2023/12/10 09:30:34;;;;;;;2.90;2.57;;;16.70;66.00;;;;;;5081338;28;43392;-73
2023/12/10 09:33:02;;;;;;;3.77;2.80;;;16.70;66.00;;;;;;5081394;28;44141;-73
2023/12/10 09:35:31;;;;;;;3.37;2.37;;;16.70;65.90;;;;;;5076739;28;43506;-72
2023/12/10 09:37:59;;;;;;;2.50;2.40;;;16.60;66.00;;;;;;5071646;28;43409;-73
2023/12/10 09:40:28;;;;;;;2.90;2.70;;;16.70;66.10;;;;;;5081367;28;44174;-72
2023/12/10 09:42:56;;;;;;;2.40;2.23;;;16.70;66.10;;;;;;5072159;28;45696;-72
2023/12/10 09:45:24;;;;;;;3.37;2.60;;;16.70;66.20;;;;;;5080137;28;43459;-73
2023/12/10 09:47:53;;;;;;;3.30;2.67;;;16.60;66.10;;;;;;5070364;28;43406;-73
2023/12/10 09:50:21;;;;;;;2.57;2.40;;;16.60;66.10;;;;;;5081176;28;43506;-73
2023/12/10 09:52:49;;;;;;;2.50;2.40;;;16.70;65.90;;;;;;5080741;28;43970;-74
2023/12/10 09:55:18;;;;;;;3.77;2.47;;;16.80;65.60;;;;;;5074353;28;43354;-74
2023/12/10 09:57:48;;;;;;;2.50;2.40;;;16.90;66.10;;;;;;5068255;28;43446;-75
2023/12/10 10:00:17;;;;;;;2.40;2.20;;;16.90;65.40;;;;;;5068336;28;43424;-74
2023/12/10 10:02:45;;;;;;;2.57;2.37;;;16.90;65.60;;;;;;5050601;28;45733;-74
2023/12/10 10:05:13;;;;;;;4.37;2.33;;;16.90;65.70;;;;;;5060702;28;44958;-74
2023/12/10 10:07:42;;;;;;;2.43;2.27;;;16.90;65.60;;;;;;5067890;28;43347;-75
2023/12/10 10:10:11;;;;;;;2.50;2.30;;;16.80;65.60;;;;;;5068241;28;43447;-75
2023/12/10 10:12:40;;;;;;;2.70;2.53;;;16.80;65.80;;;;;;5067695;28;43844;-74
2023/12/10 10:15:10;;;;;;;2.47;2.37;;;16.80;65.80;;;;;;5065035;28;44739;-74
2023/12/10 10:17:38;;;;;;;2.87;2.40;;;16.80;66.70;;;;;;5062963;28;43929;-76
2023/12/10 10:20:10;;;;;;;2.83;2.50;;;16.70;66.00;;;;;;5068090;28;43439;-73
2023/12/10 10:22:38;;;;;;;3.10;2.80;;;16.70;66.00;;;;;;5067080;28;44077;-75
2023/12/10 10:25:07;;;;;;;3.20;2.70;;;16.80;66.00;;;;;;5065989;28;43361;-74
2023/12/10 10:27:35;;;;;;;2.53;2.33;;;16.80;66.00;;;;;;5061720;28;43419;-76
2023/12/10 10:30:04;;;;;;;2.63;2.43;;;16.70;66.00;;;;;;5067877;28;43462;-73
2023/12/10 10:32:33;;;;;;;2.50;2.40;;;16.70;66.10;;;;;;5067392;28;43607;-76
2023/12/10 10:35:03;;;;;;;2.77;2.40;;;16.70;66.20;;;;;;5066995;28;43517;-75
2023/12/10 10:37:31;;;;;;;2.80;2.43;;;16.70;66.20;;;;;;5067335;28;43515;-73
2023/12/10 10:39:59;;;;;;;2.67;2.50;;;16.70;66.20;;;;;;5068101;28;43510;-74
2023/12/10 10:42:28;;;;;;;2.93;2.63;;;16.80;66.00;;;;;;5067124;28;43921;-74
2023/12/10 10:44:56;;;;;;;3.23;2.60;;;16.90;65.70;;;;;;5059416;28;44622;-73
2023/12/10 10:47:24;;;;;;;2.80;2.60;;;16.90;65.40;;;;;;5067006;28;43963;-72
2023/12/10 10:49:55;;;;;;;2.83;2.63;;;16.90;65.40;;;;;;5068919;28;43503;-72
2023/12/10 10:52:43;;;;;;;6.57;4.20;;;16.90;65.60;;;;;;5065877;28;45762;-73
2023/12/10 10:55:12;;;;;;;3.73;3.30;;;16.90;65.60;;;;;;5070276;28;43883;-75
2023/12/10 10:57:41;;;;;;;3.57;3.03;;;16.80;65.10;;;;;;5069967;28;43391;-74
2023/12/10 11:00:33;;;;;;;3.20;2.80;;;16.80;65.50;;;;;;5071147;28;43478;-74
2023/12/10 11:03:03;;;;;;;2.70;2.50;;;16.80;65.70;;;;;;5068442;28;43954;-75
2023/12/10 11:05:33;;;;;;;3.33;3.03;;;16.80;65.90;;;;;;5064114;28;44701;-74
2023/12/10 11:08:03;;;;;;;3.93;3.03;;;16.80;66.00;;;;;;5067217;28;43376;-76
2023/12/10 11:10:31;;;;;;;4.13;3.10;;;16.80;66.10;;;;;;5059146;28;43737;-75
2023/12/10 11:13:00;;;;;;;3.03;2.77;;;16.80;66.10;;;;;;5070482;28;43536;-74
2023/12/10 11:15:28;;;;;;;2.77;2.57;;;16.80;66.00;;;;;;5069541;28;44961;-74
2023/12/10 11:18:00;;;;;;;3.47;2.97;;;16.80;66.10;;;;;;5081466;28;43380;-74
2023/12/10 11:20:34;;;;;;;3.10;2.90;;;16.80;66.20;;;;;;5083945;28;43376;-72
2023/12/10 11:23:03;;;;;;;5.73;2.70;;;16.80;66.20;;;;;;5076615;28;43597;-74
2023/12/10 11:25:31;;;;;;;3.53;3.20;;;16.70;66.20;;;;;;5078910;28;43487;-75
2023/12/10 11:28:02;;;;;;;3.17;2.83;;;16.70;66.20;;;;;;5081702;28;43420;-75
2023/12/10 11:30:30;;;;;;;3.40;3.10;;;16.80;66.30;;;;;;5082364;28;43430;-73
2023/12/10 11:32:58;;;;;;;3.20;3.00;;;16.80;66.00;;;;;;5082119;28;43796;-72
2023/12/10 11:35:26;;;;;;;3.17;2.97;;;16.90;65.70;;;;;;5081315;28;43427;-74
2023/12/10 11:37:56;;;;;;;3.30;2.90;;;16.90;65.50;;;;;;5081792;28;43398;-73
2023/12/10 11:40:24;;;;;;;2.70;2.50;;;16.90;65.60;;;;;;5080893;28;43487;-73
2023/12/10 11:42:52;;;;;;;3.60;2.73;;;16.90;65.80;;;;;;5080491;28;43998;-74
2023/12/10 11:45:20;;;;;;;2.83;2.67;;;16.80;65.70;;;;;;5080855;28;44098;-74
2023/12/10 11:47:48;;;;;;;2.93;2.73;;;16.80;65.60;;;;;;5080082;28;43423;-74
2023/12/10 11:50:17;;;;;;;3.20;2.90;;;16.80;65.70;;;;;;5082435;28;43454;-74
2023/12/10 11:52:45;;;;;;;2.97;2.77;;;16.80;65.90;;;;;;5081193;28;43860;-74
2023/12/10 11:55:15;;;;;;;2.70;2.60;;;16.80;66.00;;;;;;5075304;28;44483;-74
2023/12/10 11:57:43;;;;;;;2.70;2.50;;;16.80;66.10;;;;;;5080522;28;43360;-74
2023/12/10 12:00:14;;;;;;;2.50;2.40;;;16.70;66.10;;;;;;5068020;28;43579;-73
2023/12/10 12:02:43;;;;;;;3.17;2.87;;;16.80;66.10;;;;;;5075044;28;43816;-74
2023/12/10 12:05:11;;;;;;;3.00;2.80;;;16.80;66.10;;;;;;5074387;28;43429;-73
2023/12/10 12:07:43;;;;;;;3.00;2.80;;;16.80;66.20;;;;;;5078739;28;43339;-74
2023/12/10 12:10:13;;;;;;;2.70;2.60;;;16.80;66.20;;;;;;5077013;28;43559;-75
2023/12/10 12:12:43;;;;;;;2.80;2.60;;;16.80;66.30;;;;;;5081164;28;43676;-73
2023/12/10 12:15:11;;;;;;;2.83;2.63;;;16.70;66.20;;;;;;5076132;28;43377;-78
2023/12/10 12:17:40;;;;;;;3.40;2.70;;;16.70;66.30;;;;;;5052071;28;43457;-77
2023/12/10 12:20:18;;;;;;;2.73;2.53;;;16.80;66.20;;;;;;5062527;28;43631;-77
2023/12/10 12:22:47;;;;;;;3.57;2.60;;;16.80;65.80;;;;;;5065538;28;44270;-79
2023/12/10 12:25:18;;;;;;;2.50;2.30;;;16.90;65.60;;;;;;5074822;28;43396;-74
2023/12/10 12:27:46;;;;;;;2.47;2.30;;;16.90;65.70;;;;;;5080302;28;43329;-72
2023/12/10 12:30:16;;;;;;;3.07;2.23;;;16.90;65.80;;;;;;5075624;28;43468;-73
2023/12/10 12:32:44;;;;;;;2.47;2.33;;;16.90;65.90;;;;;;5065021;28;45735;-73
2023/12/10 12:35:13;;;;;;;2.93;2.73;;;16.80;65.90;;;;;;5075263;28;44504;-72
2023/12/10 12:37:41;;;;;;;2.83;2.67;;;16.80;65.80;;;;;;5071270;28;43507;-74
2023/12/10 12:40:11;;;;;;;2.30;2.20;;;16.80;65.90;;;;;;5080709;28;43561;-74
2023/12/10 12:42:40;;;;;;;2.43;2.27;;;16.80;66.00;;;;;;5080731;28;43617;-75
2023/12/10 12:45:09;;;;;;;2.60;2.40;;;16.80;66.20;;;;;;5081042;28;43456;-71
2023/12/10 12:47:37;;;;;;;2.60;2.40;;;16.80;66.20;;;;;;5079593;28;43509;-73
2023/12/10 12:50:07;;;;;;;3.30;2.60;;;16.80;66.30;;;;;;5080462;28;43406;-74
2023/12/10 12:52:36;;;;;;;3.07;2.87;;;16.80;66.20;;;;;;5079824;28;43619;-74
2023/12/10 12:55:05;;;;;;;2.53;2.33;;;16.90;66.00;;;;;;5072000;28;44698;-73